Latest Weather Observations for Dennes Point

IDT60801

Issued at 2:02 pm EST Sunday 5 July 2015 (issued every 30 minutes, with the page automatically refreshed every 10 minutes)

About weather observations | Map of weather stations | Latest weather observations for TAS | Other Formats
Station Details ID: 094255 Name: DENNES POINT Lat: -43.06 Lon: 147.36 Height: 5.67 m
Data from the previous 72 hours. | See also: Recent months at Dennes Point
Date/Time
EST
Temp
°C
App
Temp
°C
Dew
Point
Rel
Hum
%
Delta-T
°C
Wind Press
QNH
hPa
Press
MSL
hPa
Rain
since 9 am
mm
Dir
 
Spd
km/h
Gust
km/h
Spd
kts
Gust
kts
05/02:00pm 9.7 6.7 3.9 67 2.5 SSW 9 15 5 8 1013.7 1013.7 0.0
05/01:30pm 10.5 7.9 4.0 64 2.9 SE 7 11 4 6 1013.7 1013.7 0.0
05/01:00pm 9.8 7.3 4.6 70 2.3 ESE 7 13 4 7 1013.7 1013.7 0.0
05/12:30pm 10.4 8.1 4.8 68 2.5 WSW 6 7 3 4 1013.8 1013.8 0.0
05/12:00pm 10.0 7.6 5.2 72 2.2 WNW 7 9 4 5 1013.9 1013.9 0.0
05/11:30am 9.3 7.8 4.9 74 2.0 WSW 2 4 1 2 1014.1 1014.1 0.0
05/11:00am 9.2 6.9 4.6 73 2.0 WSW 6 7 3 4 1014.5 1014.5 0.0
05/10:30am 8.9 7.0 4.7 75 1.9 SW 4 6 2 3 1014.5 1014.5 0.0
05/10:00am 8.4 6.4 4.6 77 1.7 SW 4 6 2 3 1014.5 1014.5 0.0
05/09:30am 7.9 5.4 4.8 81 1.4 SW 7 9 4 5 1014.5 1014.5 0.0
05/09:00am 7.7 5.2 4.5 80 1.4 SSW 7 9 4 5 1014.4 1014.4 0.0
05/08:30am 7.4 4.5 4.5 82 1.3 SSE 9 15 5 8 1014.2 1014.2 0.0
05/08:00am 5.8 3.3 3.5 85 1.0 SSW 6 9 3 5 1014.0 1014.0 0.0
05/07:30am 5.7 3.1 3.4 85 1.0 SSW 6 13 3 7 1013.9 1013.9 0.0
05/07:00am 6.1 3.1 3.9 86 0.9 SW 9 13 5 7 1013.7 1013.7 0.0
05/06:30am 5.8 3.2 4.0 88 0.8 WSW 7 9 4 5 1013.4 1013.4 0.0
05/06:00am 5.4 2.6 3.3 86 0.9 SW 7 9 4 5 1013.5 1013.5 0.0
05/05:30am 5.7 2.9 3.0 83 1.1 SW 7 9 4 5 1013.3 1013.3 0.0
05/05:00am 5.7 2.8 2.4 79 1.3 SSW 7 11 4 6 1013.3 1013.3 0.0
05/04:30am 7.0 4.2 3.1 76 1.6 SSW 7 9 4 5 1013.1 1013.1 0.0
05/04:00am 7.5 4.8 2.6 71 2.0 SW 6 6 3 3 1013.2 1013.2 0.0
05/03:30am 8.1 5.7 1.9 65 2.6 SW 4 6 2 3 1013.3 1013.3 0.0
05/03:00am 7.4 4.5 1.7 67 2.3 WSW 6 7 3 4 1013.6 1013.6 0.0
05/02:30am 9.2 5.9 2.5 63 2.8 WNW 9 17 5 9 1013.7 1013.7 0.0
05/02:00am 9.6 5.9 2.5 61 3.0 NW 11 17 6 9 1013.7 1013.7 0.0
05/01:30am 9.1 5.9 3.1 66 2.6 NW 9 13 5 7 1013.5 1013.5 0.0
05/01:00am 8.3 6.4 2.8 68 2.3 WNW 2 6 1 3 1013.7 1013.7 0.0
05/12:30am 8.5 5.9 3.1 69 2.3 W 6 9 3 5 1013.6 1013.6 0.0
05/12:00am 8.7 5.4 2.7 66 2.5 WNW 9 15 5 8 1013.5 1013.5 0.0
 
Date/Time
EST
Temp
°C
App
Temp
°C
Dew
Point
Rel
Hum
%
Delta-T
°C
Wind Press
QNH
hPa
Press
MSL
hPa
Rain
since 9 am
mm
Dir
 
Spd
km/h
Gust
km/h
Spd
kts
Gust
kts
04/11:30pm 7.8 4.8 2.1 67 2.4 WSW 7 9 4 5 1013.7 1013.7 0.0
04/11:00pm 8.9 5.6 2.3 63 2.8 WSW 9 17 5 9 1013.5 1013.5 0.0
04/10:30pm 9.7 4.1 1.4 56 3.4 WSW 20 32 11 17 1013.5 1013.5 0.0
04/10:00pm 10.0 4.4 1.4 55 3.6 W 20 39 11 21 1013.6 1013.6 0.0
04/09:30pm 9.7 4.7 1.6 57 3.4 WSW 17 26 9 14 1013.6 1013.6 0.0
04/09:00pm 9.5 4.2 2.1 60 3.1 WSW 19 28 10 15 1013.8 1013.8 0.0
04/08:30pm 9.2 5.9 2.5 63 2.8 WSW 9 15 5 8 1013.8 1013.8 0.0
04/08:00pm 9.8 5.7 2.2 59 3.2 SW 13 19 7 10 1013.6 1013.6 0.0
04/07:30pm 9.1 5.0 2.0 61 3.0 SW 13 22 7 12 1013.4 1013.4 0.0
04/07:00pm 9.8 4.6 2.2 59 3.2 SW 19 26 10 14 1013.5 1013.5 0.0
04/06:30pm 10.1 5.5 1.7 56 3.5 WSW 15 22 8 12 1013.2 1013.2 0.0
04/06:00pm 10.0 2.9 1.4 55 3.6 WSW 28 37 15 20 1012.7 1012.7 0.0
04/05:30pm 10.1 4.5 1.2 54 3.7 W 20 30 11 16 1012.3 1012.3 0.0
04/05:00pm 10.4 2.3 1.0 52 3.9 W 33 48 18 26 1012.3 1012.3 0.0
04/04:36pm 10.2 1.4 1.3 54 3.7 W 37 57 20 31 1012.1 1012.1 0.0
04/04:30pm 10.3 0.7 0.9 52 3.9 W 41 57 22 31 1012.0 1012.0 0.0
04/04:18pm 10.4 2.4 1.5 54 3.7 WSW 33 44 18 24 1011.9 1011.9 0.0
04/04:00pm 10.7 2.9 2.0 55 3.7 W 32 54 17 29 1012.0 1012.0 0.0
04/03:51pm 11.1 4.3 2.9 57 3.6 W 28 54 15 29 1011.9 1011.9 0.0
04/03:30pm 11.3 4.5 3.3 58 3.5 WSW 28 41 15 22 1011.9 1011.9 0.0
04/03:00pm 11.2 6.0 2.5 55 3.7 WSW 19 28 10 15 1011.6 1011.6 0.0
04/02:30pm 11.4 6.7 2.9 56 3.7 W 17 28 9 15 1011.6 1011.6 0.0
04/02:00pm 11.6 6.5 2.9 55 3.8 W 19 30 10 16 1011.6 1011.6 0.0
04/01:30pm 11.7 4.0 3.2 56 3.7 WSW 33 44 18 24 1011.1 1011.1 0.0
04/01:00pm 12.4 4.8 3.1 53 4.1 WSW 32 48 17 26 1010.9 1010.9 0.0
04/12:30pm 12.6 4.6 3.6 54 4.0 WSW 35 46 19 25 1010.6 1010.6 0.0
04/12:00pm 12.7 4.9 4.7 58 3.7 W 35 52 19 28 1010.4 1010.4 0.0
04/11:30am 12.7 3.6 4.2 56 3.9 W 41 56 22 30 1010.8 1010.8 0.0
04/11:00am 12.7 4.1 4.4 57 3.8 W 39 61 21 33 1011.1 1011.1 0.0
04/10:56am 12.7 3.9 3.4 53 4.1 W 39 61 21 33 1010.9 1010.9 0.0
04/10:30am 12.5 5.8 5.4 62 3.3 WSW 30 44 16 24 1011.1 1011.1 0.0
04/10:00am 12.7 5.2 4.4 57 3.8 W 33 41 18 22 1010.5 1010.5 0.0
04/09:30am 12.4 3.8 4.9 60 3.4 W 39 52 21 28 1010.2 1010.2 0.0
04/09:16am 12.0 4.5 4.5 60 3.4 W 33 57 18 31 1010.0 1010.0 0.0
04/09:00am 12.1 5.5 5.9 66 2.9 W 30 46 16 25 1009.9 1009.9 0.0
04/08:52am 11.9 5.7 6.2 68 2.7 W 28 39 15 21 1009.8 1009.8 0.0
04/08:30am 11.7 8.1 6.6 71 2.4 WSW 15 19 8 10 1009.6 1009.6 0.0
04/08:00am 11.7 8.1 6.8 72 2.3 WSW 15 30 8 16 1009.3 1009.3 0.0
04/07:30am 10.8 8.9 7.7 81 1.5 WSW 7 17 4 9 1009.4 1009.4 0.0
04/07:00am 10.9 8.0 8.3 84 1.3 NW 13 17 7 9 1009.2 1009.2 0.0
04/06:30am 10.6 7.4 8.4 86 1.1 NNW 15 20 8 11 1008.9 1008.9 0.0
04/06:00am 10.4 6.2 8.3 87 1.0 NNW 20 28 11 15 1008.5 1008.5 0.0
04/05:30am 10.6 6.6 8.2 85 1.2 N 19 24 10 13 1008.3 1008.3 0.0
04/05:00am 10.4 5.7 7.8 84 1.3 N 22 28 12 15 1008.2 1008.2 0.0
04/04:30am 10.6 5.8 7.5 81 1.5 N 22 30 12 16 1008.1 1008.1 0.0
04/04:00am 10.6 4.1 6.7 77 1.8 N 30 37 16 20 1008.2 1008.2 0.0
04/03:30am 11.0 7.3 6.4 73 2.2 N 15 20 8 11 1008.4 1008.4 0.0
04/03:00am 10.7 7.4 6.3 74 2.1 NNW 13 20 7 11 1008.9 1008.9 0.0
04/02:30am 10.4 6.3 6.2 75 2.0 NNW 17 22 9 12 1009.3 1009.3 0.0
04/02:00am 10.2 5.4 5.8 74 2.0 NNW 20 28 11 15 1009.9 1009.9 0.0
04/01:30am 10.4 5.8 5.8 73 2.1 NNW 19 24 10 13 1010.1 1010.1 0.0
04/01:00am 10.2 5.0 5.4 72 2.2 NNW 22 32 12 17 1009.9 1009.9 0.0
04/12:30am 10.1 4.8 5.1 71 2.3 NW 22 30 12 16 1010.4 1010.4 0.0
04/12:00am 10.5 5.6 5.1 69 2.5 NNW 20 30 11 16 1011.3 1011.3 0.0
 
Date/Time
EST
Temp
°C
App
Temp
°C
Dew
Point
Rel
Hum
%
Delta-T
°C
Wind Press
QNH
hPa
Press
MSL
hPa
Rain
since 9 am
mm
Dir
 
Spd
km/h
Gust
km/h
Spd
kts
Gust
kts
03/11:30pm 10.9 5.5 4.4 64 2.9 NW 22 32 12 17 1011.7 1011.7 0.0
03/11:00pm 10.8 4.8 3.6 61 3.2 WNW 24 35 13 19 1011.9 1011.9 0.0
03/10:30pm 10.4 5.2 3.4 62 3.1 WNW 20 35 11 19 1012.5 1012.5 0.0
03/10:00pm 10.4 4.4 3.4 62 3.1 WNW 24 32 13 17 1012.6 1012.6 0.0
03/09:30pm 10.4 3.7 3.4 62 3.1 WNW 28 39 15 21 1013.2 1013.2 0.0
03/09:01pm 10.5 1.4 3.8 63 3.0 WNW 41 61 22 33 1013.1 1013.1 0.0
03/09:00pm 10.5 1.4 3.8 63 3.0 WNW 41 54 22 29 1013.0 1013.0 0.0
03/08:37pm 10.5 1.2 2.8 59 3.3 W 41 59 22 32 1013.1 1013.1 0.0
03/08:30pm 10.6 1.3 2.9 59 3.3 W 41 56 22 30 1013.1 1013.1 0.0
03/08:00pm 10.4 1.1 3.0 60 3.2 WNW 41 56 22 30 1013.2 1013.2 0.0
03/07:30pm 10.1 2.6 3.2 62 3.0 W 32 44 17 24 1014.0 1014.0 0.0
03/07:00pm 10.1 4.5 3.4 63 2.9 W 22 43 12 23 1014.5 1014.5 0.0
03/06:30pm 10.5 5.1 2.4 57 3.5 WNW 20 46 11 25 1014.6 1014.6 0.0
03/06:00pm 10.0 4.9 2.8 61 3.1 WNW 19 30 10 16 1015.2 1015.2 0.0
03/05:30pm 10.0 4.9 2.8 61 3.1 WNW 19 26 10 14 1015.3 1015.3 0.0
03/05:00pm 10.1 6.5 2.9 61 3.1 WNW 11 24 6 13 1015.4 1015.4 0.0
03/04:30pm 10.5 6.9 3.1 60 3.2 WNW 11 30 6 16 1015.6 1015.6 0.0
03/04:00pm 11.3 7.8 3.6 59 3.4 NNW 11 19 6 10 1015.6 1015.6 0.0
03/03:30pm 11.3 7.9 2.1 53 3.9 WNW 9 15 5 8 1016.2 1016.2 0.0
03/03:00pm 11.1 6.6 2.4 55 3.7 W 15 28 8 15 1016.3 1016.3 0.0
03/02:30pm 11.2 5.6 3.3 58 3.5 WNW 22 28 12 15 1016.6 1016.6 0.0
03/02:00pm 11.8 6.7 3.3 56 3.7 WNW 19 30 10 16 1017.1 1017.1 0.0
03/01:30pm 11.5 7.7 3.8 59 3.4 NW 13 19 7 10 1017.7 1017.7 0.0
03/01:00pm 10.9 6.6 3.5 60 3.2 N 15 32 8 17 1018.3 1018.3 0.0
03/12:30pm 11.6 7.0 3.6 58 3.5 W 17 22 9 12 1018.9 1018.9 0.0
03/12:00pm 11.0 6.0 3.5 60 3.3 WNW 19 24 10 13 1019.3 1019.3 0.0
03/11:30am 10.7 8.0 2.5 57 3.5 NW 6 9 3 5 1020.0 1020.0 0.0
03/11:00am 10.2 5.4 2.8 60 3.2 NW 17 24 9 13 1020.6 1020.6 0.0
03/10:30am 9.7 4.4 2.8 62 2.9 WNW 20 39 11 21 1020.8 1020.8 0.0
03/10:00am 9.3 4.9 2.6 63 2.8 NW 15 28 8 15 1021.1 1021.1 0.0
03/09:30am 8.8 3.4 2.4 64 2.7 WNW 20 28 11 15 1021.3 1021.3 0.0
03/09:00am 8.5 2.7 2.1 64 2.6 WNW 22 39 12 21 1021.2 1021.2 0.2
03/08:30am 8.3 2.5 2.3 66 2.5 WNW 22 28 12 15 1021.3 1021.3 0.2
03/08:00am 7.1 3.9 3.0 75 1.7 N 9 13 5 7 1021.3 1021.3 0.2
03/07:30am 7.2 3.3 3.3 76 1.6 N 13 17 7 9 1021.5 1021.5 0.2
03/07:00am 7.3 3.3 2.8 73 1.9 NNW 13 15 7 8 1021.2 1021.2 0.2
03/06:30am 6.5 4.0 1.6 71 2.0 WSW 4 9 2 5 1021.2 1021.2 0.2
03/06:00am 6.9 4.5 2.0 71 2.0 WSW 4 11 2 6 1021.1 1021.1 0.2
03/05:30am 6.6 4.1 1.7 71 2.0 WNW 4 7 2 4 1021.2 1021.2 0.2
03/05:00am 6.7 2.8 1.4 69 2.1 W 11 17 6 9 1021.2 1021.2 0.2
03/04:30am 7.5 3.7 2.0 68 2.3 NW 11 17 6 9 1021.3 1021.3 0.2
03/04:00am 6.7 4.2 1.4 69 2.1 NNW 4 7 2 4 1021.5 1021.5 0.2
03/03:30am 6.7 2.1 1.8 71 2.0 WSW 15 20 8 11 1021.7 1021.7 0.2
03/03:00am 6.1 2.6 1.1 70 2.0 W 9 11 5 6 1022.4 1022.4 0.2
03/02:30am 6.9 2.3 1.8 70 2.1 WNW 15 22 8 12 1022.5 1022.5 0.2
03/02:00am 6.9 1.9 1.6 69 2.1 W 17 22 9 12 1022.5 1022.5 0.2
03/01:30am 6.8 2.6 1.9 71 2.0 NW 13 15 7 8 1022.4 1022.4 0.2
03/01:00am 6.7 2.1 1.8 71 2.0 W 15 19 8 10 1022.3 1022.3 0.2
03/12:30am 6.7 1.2 2.0 72 1.9 WSW 20 26 11 14 1022.2 1022.2 0.2
03/12:00am 6.7 0.5 2.0 72 1.9 W 24 32 13 17 1022.2 1022.2 0.2
 
Date/Time
EST
Temp
°C
App
Temp
°C
Dew
Point
Rel
Hum
%
Delta-T
°C
Wind Press
QNH
hPa
Press
MSL
hPa
Rain
since 9 am
mm
Dir
 
Spd
km/h
Gust
km/h
Spd
kts
Gust
kts
02/11:30pm 6.8 1.5 1.9 71 2.0 WSW 19 26 10 14 1022.2 1022.2 0.2
02/11:00pm 6.4 0.5 1.7 72 1.9 W 22 30 12 16 1022.1 1022.1 0.2
02/10:30pm 6.5 1.0 2.0 73 1.8 W 20 28 11 15 1021.6 1021.6 0.2
02/10:00pm 6.1 1.1 1.6 73 1.8 W 17 22 9 12 1022.0 1022.0 0.2
02/09:30pm 6.3 1.0 2.0 74 1.7 W 19 22 10 12 1021.7 1021.7 0.2
02/09:00pm 6.1 0.8 2.0 75 1.7 WNW 19 22 10 12 1021.6 1021.6 0.2
02/08:30pm 6.1 0.8 2.0 75 1.7 W 19 20 10 11 1021.1 1021.1 0.2
02/08:00pm 6.0 1.4 1.7 74 1.7 W 15 20 8 11 1021.0 1021.0 0.2
02/07:30pm 6.2 1.5 1.1 70 2.0 W 15 22 8 12 1020.6 1020.6 0.2
02/07:00pm 6.2 0.8 1.1 70 2.0 WSW 19 28 10 15 1020.1 1020.1 0.2
02/06:30pm 6.5 0.9 1.2 69 2.1 WSW 20 28 11 15 1019.5 1019.5 0.2
02/06:00pm 6.1 1.8 1.1 70 2.0 WSW 13 17 7 9 1019.0 1019.0 0.2
02/05:30pm 6.5 0.6 1.6 71 2.0 WSW 22 28 12 15 1018.8 1018.8 0.2
02/05:00pm 6.6 0.4 2.3 74 1.8 WSW 24 32 13 17 1018.6 1018.6 0.2
02/04:30pm 6.8 -0.9 2.1 72 1.9 WSW 32 43 17 23 1018.2 1018.2 0.2
02/04:00pm 7.6 1.8 2.5 70 2.1 WSW 22 30 12 16 1017.6 1017.6 0.2
02/03:30pm 8.1 2.0 3.0 70 2.2 WSW 24 33 13 18 1017.3 1017.3 0.2
02/03:00pm 7.9 2.6 3.0 71 2.1 WSW 20 28 11 15 1016.4 1016.4 0.2
02/02:30pm 8.2 1.7 2.4 67 2.4 SW 26 35 14 19 1015.8 1015.8 0.2

Other Formats:

Comma delimited format used in spreadsheet applications
http://www.bom.gov.au/fwo/IDT60801/IDT60801.94988.axf

JavaScript Object Notation format (JSON) in row-major order
http://www.bom.gov.au/fwo/IDT60801/IDT60801.94988.json